Time;durP1;ratioP1;P1;durP2;ratioP2;P2;SDS_P1;SDS_P2;PMS_P1;PMS_P2;Temp;Humidity;BMP_temperature;BMP_pressure;BME280_temperature;BME280_humidity;BME280_pressure;Samples;Min_cycle;Max_cycle;Signal;HPM_P1;HPM_P2
2024/03/29 00:02:22;;;;;;;2.70;0.80;;;;;;;16.62;49.72;97058.06;5090854;28;20081;-75
2024/03/29 00:04:48;;;;;;;1.88;0.80;;;;;;;16.53;49.90;97045.41;5073221;28;20036;-75
2024/03/29 00:07:13;;;;;;;2.25;0.77;;;;;;;16.48;51.09;97057.63;5053760;28;20117;-76
2024/03/29 00:09:39;;;;;;;2.40;1.23;;;;;;;16.36;50.98;97056.06;5070395;28;20033;-76
2024/03/29 00:12:05;;;;;;;1.08;0.77;;;;;;;16.47;50.10;97039.72;5089805;28;20414;-76
2024/03/29 00:14:33;;;;;;;4.32;0.75;;;;;;;16.39;50.88;97062.06;5073668;28;20134;-76
2024/03/29 00:16:59;;;;;;;1.70;0.70;;;;;;;16.28;52.01;97067.56;5090050;28;20048;-75
2024/03/29 00:19:25;;;;;;;2.78;0.88;;;;;;;16.10;53.25;97069.28;5090429;28;20024;-74
2024/03/29 00:21:51;;;;;;;3.88;1.10;;;;;;;15.92;53.18;97081.75;5090481;28;20036;-74
2024/03/29 00:24:17;;;;;;;3.63;1.17;;;;;;;15.83;54.13;97082.56;5079239;28;20024;-75
2024/03/29 00:26:42;;;;;;;1.55;0.93;;;;;;;15.72;54.20;97064.66;5071438;28;20488;-76
2024/03/29 00:29:08;;;;;;;10.55;1.17;;;;;;;15.61;55.22;97084.50;5071014;28;20043;-76
2024/03/29 00:31:33;;;;;;;6.43;2.10;;;;;;;15.48;56.71;97083.91;5085306;28;20416;-75
2024/03/29 00:33:59;;;;;;;7.30;2.28;;;;;;;15.45;63.62;97091.38;5085507;28;20058;-75
2024/03/29 00:36:25;;;;;;;2.10;1.08;;;;;;;15.36;58.77;97079.56;5069674;28;20036;-76
2024/03/29 00:38:50;;;;;;;2.22;1.30;;;;;;;15.27;59.23;97083.06;5069945;28;20040;-76
2024/03/29 00:41:16;;;;;;;3.38;1.75;;;;;;;15.33;57.54;97069.06;5053001;28;20450;-76
2024/03/29 00:43:41;;;;;;;8.23;2.88;;;;;;;15.43;58.21;97072.66;5075352;28;20487;-75
2024/03/29 00:46:07;;;;;;;4.97;1.70;;;;;;;15.48;57.41;97056.94;5089623;28;20035;-76
2024/03/29 00:48:33;;;;;;;3.45;1.10;;;;;;;15.61;56.35;97046.78;5069220;28;20399;-75
2024/03/29 00:50:58;;;;;;;7.80;1.67;;;;;;;15.66;56.39;97039.09;5053557;28;20028;-75
2024/03/29 00:53:24;;;;;;;3.20;1.65;;;;;;;15.65;56.97;97040.13;5078486;28;20171;-74
2024/03/29 00:55:49;;;;;;;4.55;1.38;;;;;;;15.65;56.74;97042.81;5084945;28;20036;-75
2024/03/29 00:58:15;;;;;;;3.25;1.20;;;;;;;15.62;57.05;97061.09;5072799;28;20036;-75
2024/03/29 01:00:40;;;;;;;1.60;0.80;;;;;;;15.76;56.00;97065.25;5089708;28;20499;-76
2024/03/29 01:03:06;;;;;;;1.73;0.93;;;;;;;15.88;56.12;97064.97;5089453;28;20032;-75
2024/03/29 01:05:32;;;;;;;2.97;1.05;;;;;;;15.94;55.50;97069.81;5090847;28;20032;-76
2024/03/29 01:07:57;;;;;;;4.38;0.85;;;;;;;15.93;55.25;97064.56;5090928;28;20528;-75
2024/03/29 01:10:23;;;;;;;1.15;0.45;;;;;;;15.82;55.68;97084.41;5089401;28;20051;-75
2024/03/29 01:12:48;;;;;;;6.60;1.17;;;;;;;15.82;56.12;97083.56;5089641;28;20023;-74
2024/03/29 01:15:14;;;;;;;3.42;0.90;;;;;;;15.70;56.76;97081.00;5070665;28;20089;-75
2024/03/29 01:17:40;;;;;;;1.52;0.82;;;;;;;15.69;56.54;97087.38;5068885;28;20056;-75
2024/03/29 01:20:08;;;;;;;1.10;0.63;;;;;;;15.75;56.45;97090.53;5052533;28;20028;-76
2024/03/29 01:22:34;;;;;;;4.15;0.93;;;;;;;15.82;56.40;97092.50;5070920;28;20480;-75
2024/03/29 01:25:00;;;;;;;6.35;1.10;;;;;;;15.82;56.82;97097.03;5075652;28;20025;-75
2024/03/29 01:27:25;;;;;;;3.78;1.10;;;;;;;15.75;57.23;97090.53;5080753;28;20020;-75
2024/03/29 01:29:51;;;;;;;4.95;1.13;;;;;;;15.94;56.03;97096.78;5052324;28;20112;-76
2024/03/29 01:32:17;;;;;;;1.92;0.60;;;;;;;16.05;55.23;97088.59;5069341;28;20024;-76
2024/03/29 01:34:42;;;;;;;2.65;0.82;;;;;;;16.08;55.26;97098.25;5083040;28;20476;-76
2024/03/29 01:37:08;;;;;;;2.70;0.90;;;;;;;16.06;55.59;97089.41;5078304;28;20024;-76
2024/03/29 01:39:33;;;;;;;1.40;0.65;;;;;;;16.14;55.04;97086.91;5089097;28;20152;-76
2024/03/29 01:41:59;;;;;;;2.15;0.70;;;;;;;16.23;54.92;97096.84;5089334;28;20123;-77
2024/03/29 01:44:24;;;;;;;0.68;0.60;;;;;;;16.23;54.52;97102.25;5088996;28;20024;-75
2024/03/29 01:46:50;;;;;;;1.70;1.00;;;;;;;16.19;55.03;97106.19;5088895;28;20476;-75
2024/03/29 01:49:16;;;;;;;4.07;0.95;;;;;;;16.17;55.36;97102.81;5072312;28;20024;-76
2024/03/29 01:51:42;;;;;;;1.10;0.52;;;;;;;16.06;55.78;97102.91;5077771;28;20107;-76
2024/03/29 01:54:12;;;;;;;2.70;0.73;;;;;;;15.95;55.83;97097.66;5089438;28;20024;-75
2024/03/29 01:56:39;;;;;;;2.00;0.60;;;;;;;15.94;55.72;97093.25;5061308;28;20100;-75
2024/03/29 01:59:10;;;;;;;3.95;1.15;;;;;;;15.97;56.08;97101.06;5068671;28;20017;-76
2024/03/29 02:01:36;;;;;;;3.60;1.38;;;;;;;15.99;56.07;97104.47;5068555;28;20391;-76
2024/03/29 02:04:02;;;;;;;4.07;0.95;;;;;;;16.16;55.18;97109.19;5087222;28;20028;-77
2024/03/29 02:06:28;;;;;;;2.63;0.82;;;;;;;16.19;55.03;97111.59;5089332;28;20399;-76
2024/03/29 02:08:54;;;;;;;3.10;1.10;;;;;;;16.28;54.51;97118.84;5092754;28;20457;-75
2024/03/29 02:11:20;;;;;;;4.70;1.50;;;;;;;16.24;54.83;97118.28;5061150;28;20036;-76
2024/03/29 02:13:47;;;;;;;2.72;1.05;;;;;;;16.23;54.94;97134.63;5055698;28;20472;-76
2024/03/29 02:16:13;;;;;;;2.83;1.27;;;;;;;16.13;55.60;97144.53;5086448;28;20074;-76
2024/03/29 02:18:38;;;;;;;4.13;0.80;;;;;;;16.12;55.66;97149.09;5092588;28;20040;-75
2024/03/29 02:21:04;;;;;;;3.80;0.85;;;;;;;16.03;55.92;97146.34;5075939;28;20384;-75
2024/03/29 02:23:32;;;;;;;4.63;0.98;;;;;;;15.99;56.11;97153.03;5094238;28;20057;-77
2024/03/29 02:25:58;;;;;;;14.00;7.10;;;;;;;15.99;56.55;97153.03;5092510;28;20438;-76
2024/03/29 02:28:24;;;;;;;1.77;0.90;;;;;;;16.03;56.60;97162.53;5092583;28;20034;-77
2024/03/29 02:30:49;;;;;;;2.65;0.82;;;;;;;15.94;56.59;97163.38;5092506;28;20032;-77
2024/03/29 02:33:15;;;;;;;1.52;0.70;;;;;;;15.92;56.84;97157.28;5087199;28;20545;-76
2024/03/29 02:35:41;;;;;;;4.18;1.50;;;;;;;15.91;57.16;97163.66;5072116;28;20036;-76
2024/03/29 02:38:06;;;;;;;2.65;0.70;;;;;;;15.91;57.18;97183.38;5059632;28;20502;-75
2024/03/29 02:40:32;;;;;;;2.33;0.85;;;;;;;15.87;57.86;97178.44;5093717;28;20097;-76
2024/03/29 02:42:57;;;;;;;1.85;1.00;;;;;;;15.74;58.73;97186.75;5075187;28;20020;-75
2024/03/29 02:45:23;;;;;;;5.30;1.30;;;;;;;15.58;59.46;97187.25;5093695;28;20085;-76
2024/03/29 02:47:49;;;;;;;3.97;1.58;;;;;;;15.56;59.52;97202.72;5075209;28;20063;-75
2024/03/29 02:50:15;;;;;;;2.63;0.93;;;;;;;15.50;60.06;97200.56;5073950;28;20024;-76
2024/03/29 02:52:42;;;;;;;2.10;1.08;;;;;;;15.40;60.83;97196.03;5092047;28;20352;-77
2024/03/29 02:55:08;;;;;;;28.58;14.95;;;;;;;15.44;61.63;97208.28;5082887;28;20024;-76
2024/03/29 02:57:33;;;;;;;5.78;2.30;;;;;;;15.42;61.71;97215.63;5071863;28;20440;-76
2024/03/29 02:59:59;;;;;;;3.70;1.23;;;;;;;15.44;61.00;97203.72;5079477;28;20032;-76
2024/03/29 03:02:24;;;;;;;3.50;0.88;;;;;;;15.51;60.34;97213.03;5092088;28;20042;-77
2024/03/29 03:04:50;;;;;;;2.42;1.10;;;;;;;15.43;61.54;97210.13;5086390;28;20021;-76
2024/03/29 03:12:43;;;;;;;3.00;0.85;;;;;;;15.37;61.95;97223.25;5074004;28;20038;-77
2024/03/29 03:15:09;;;;;;;4.13;1.52;;;;;;;15.28;62.81;97226.75;5066345;28;20028;-76
2024/03/29 03:17:35;;;;;;;3.05;0.90;;;;;;;15.29;63.27;97240.06;5092864;28;20495;-76
2024/03/29 03:20:00;;;;;;;1.45;0.68;;;;;;;15.28;64.23;97235.69;5073704;28;20031;-76
2024/03/29 03:22:26;;;;;;;3.72;0.52;;;;;;;15.30;62.96;97236.41;5061045;28;20025;-76
2024/03/29 03:24:51;;;;;;;2.45;0.80;;;;;;;15.31;63.59;97240.81;5071232;28;20400;-75
2024/03/29 03:27:17;;;;;;;1.42;0.70;;;;;;;15.34;62.10;97231.63;5072505;28;20048;-75
2024/03/29 03:29:43;;;;;;;2.10;1.00;;;;;;;15.36;63.20;97226.94;5075594;28;20492;-75
2024/03/29 03:32:08;;;;;;;1.55;0.85;;;;;;;15.34;63.38;97237.00;5082302;28;20024;-78
2024/03/29 03:34:34;;;;;;;2.15;0.80;;;;;;;15.31;63.71;97242.66;5091537;28;20028;-76
2024/03/29 03:37:00;;;;;;;5.03;1.38;;;;;;;15.24;65.20;97247.72;5073020;28;20050;-77
2024/03/29 03:39:25;;;;;;;3.25;1.05;;;;;;;15.30;64.39;97252.56;5073057;28;20118;-77
2024/03/29 03:41:51;;;;;;;2.75;0.85;;;;;;;15.33;63.24;97246.06;5057526;28;20028;-75
2024/03/29 03:44:17;;;;;;;2.15;1.13;;;;;;;15.38;63.23;97266.25;5066037;28;20027;-76
2024/03/29 03:46:42;;;;;;;4.35;0.80;;;;;;;15.46;61.88;97255.66;5091217;28;20473;-75
2024/03/29 03:49:08;;;;;;;1.95;0.60;;;;;;;15.54;61.38;97272.06;5091026;28;20020;-75
2024/03/29 03:51:34;;;;;;;2.45;0.77;;;;;;;15.56;61.45;97274.63;5090967;28;20127;-75
2024/03/29 03:53:59;;;;;;;1.92;0.77;;;;;;;15.70;59.60;97279.69;5092763;28;20387;-76
2024/03/29 03:56:25;;;;;;;0.90;0.60;;;;;;;15.80;58.65;97274.34;5091008;28;20024;-76
2024/03/29 03:58:51;;;;;;;1.10;0.70;;;;;;;15.88;58.37;97285.31;5074216;28;20069;-75
2024/03/29 04:01:16;;;;;;;1.10;0.50;;;;;;;15.82;58.95;97288.53;5080596;28;20016;-75
2024/03/29 04:03:42;;;;;;;4.20;0.52;;;;;;;15.93;57.72;97289.34;5070765;28;20029;-76
2024/03/29 04:06:07;;;;;;;1.60;0.65;;;;;;;15.97;57.75;97295.28;5078065;28;20158;-76
2024/03/29 04:08:33;;;;;;;2.83;0.70;;;;;;;16.22;56.15;97297.53;5079304;28;20097;-75
2024/03/29 04:11:03;;;;;;;1.27;0.73;;;;;;;16.28;56.00;97302.41;5082452;28;20119;-75
2024/03/29 04:13:28;;;;;;;2.63;0.93;;;;;;;16.34;55.38;97295.59;5082371;28;20024;-75
2024/03/29 04:16:01;;;;;;;8.68;1.00;;;;;;;16.40;55.12;97305.84;5068414;28;20032;-76
2024/03/29 04:18:27;;;;;;;4.70;1.40;;;;;;;16.33;55.30;97316.38;5086926;28;20107;-74
2024/03/29 04:21:03;;;;;;;2.53;1.05;;;;;;;16.27;56.09;97322.31;5083303;28;20035;-74
2024/03/29 04:23:29;;;;;;;7.25;2.15;;;;;;;16.08;58.97;97319.50;5069889;28;20089;-75
2024/03/29 04:25:55;;;;;;;5.43;1.60;;;;;;;15.86;59.25;97330.44;5061037;28;20487;-74
2024/03/29 04:28:21;;;;;;;4.00;1.33;;;;;;;15.78;60.54;97344.59;5079522;28;20028;-76
2024/03/29 04:30:57;;;;;;;3.75;1.20;;;;;;;15.65;61.24;97339.41;5070126;28;20498;-71
2024/03/29 04:33:22;;;;;;;7.40;2.65;;;;;;;15.60;61.13;97347.03;5068165;28;20028;-77
2024/03/29 04:36:02;;;;;;;2.80;1.10;;;;;;;15.68;60.53;97362.56;5087441;28;20027;-73
2024/03/29 04:38:29;;;;;;;8.88;2.05;;;;;;;15.64;61.35;97364.66;5087878;28;20044;-75
2024/03/29 04:40:56;;;;;;;5.43;2.00;;;;;;;15.61;61.35;97372.16;5087224;28;20031;-74
2024/03/29 04:43:26;;;;;;;3.88;1.60;;;;;;;15.55;61.62;97381.63;5083652;28;20502;-76
2024/03/29 04:46:10;;;;;;;2.88;1.10;;;;;;;15.55;61.96;97375.38;5074705;28;20451;-74
2024/03/29 04:48:37;;;;;;;5.38;2.38;;;;;;;15.53;61.72;97389.00;5085288;28;20040;-74
2024/03/29 04:51:03;;;;;;;3.65;1.70;;;;;;;15.60;61.43;97398.25;5066855;28;20028;-74
2024/03/29 04:53:28;;;;;;;7.65;2.30;;;;;;;15.76;61.65;97407.75;5073894;28;20035;-75
2024/03/29 04:55:55;;;;;;;3.55;1.33;;;;;;;16.25;58.82;97399.84;5088088;28;20094;-74
2024/03/29 04:58:28;;;;;;;5.03;1.73;;;;;;;16.70;56.60;97395.81;5086964;28;20028;-74
2024/03/29 05:00:54;;;;;;;4.72;1.38;;;;;;;17.12;54.78;97398.38;5086739;28;20039;-75
2024/03/29 05:03:20;;;;;;;7.60;2.15;;;;;;;17.35;53.55;97392.56;5083345;28;20029;-74
2024/03/29 05:05:46;;;;;;;8.70;3.00;;;;;;;17.68;52.78;97404.88;5085262;28;20020;-75
2024/03/29 05:08:12;;;;;;;3.95;1.52;;;;;;;17.88;51.80;97398.44;5086675;28;20081;-75
2024/03/29 05:10:39;;;;;;;7.10;2.50;;;;;;;17.96;52.03;97397.75;5088033;28;20024;-75
2024/03/29 05:13:05;;;;;;;1.63;1.40;;;;;;;18.11;50.97;97406.25;5087881;28;20420;-74
2024/03/29 05:15:31;;;;;;;4.10;1.20;;;;;;;18.17;50.00;97405.69;5086946;28;20101;-74
2024/03/29 05:17:57;;;;;;;2.72;1.02;;;;;;;18.40;49.58;97404.34;5086472;28;20424;-75
2024/03/29 05:20:22;;;;;;;3.95;1.20;;;;;;;18.68;49.59;97402.56;5079886;28;20038;-74
2024/03/29 05:22:48;;;;;;;4.30;1.30;;;;;;;19.00;48.49;97415.69;5086644;28;20093;-75
2024/03/29 05:25:16;;;;;;;4.20;1.60;;;;;;;19.45;47.69;97422.03;5087805;28;20049;-75
2024/03/29 05:27:42;;;;;;;5.60;2.60;;;;;;;20.29;46.29;97411.63;5086273;28;20111;-75
2024/03/29 05:30:09;;;;;;;13.70;6.57;;;;;;;21.34;43.98;97409.50;5087588;28;20098;-75
2024/03/29 05:32:35;;;;;;;5.70;2.35;;;;;;;22.08;41.56;97396.75;5086589;28;20111;-75
2024/03/29 05:35:01;;;;;;;6.28;2.88;;;;;;;22.84;40.78;97400.91;5087915;28;20479;-75
2024/03/29 05:37:27;;;;;;;10.23;2.78;;;;;;;23.86;39.22;97400.78;5069801;28;20058;-76
2024/03/29 05:39:59;;;;;;;2.90;1.58;;;;;;;24.82;37.24;97393.69;5079695;28;20747;-75
2024/03/29 05:42:29;;;;;;;3.58;1.52;;;;;;;25.74;35.84;97390.28;5086065;28;20074;-75
2024/03/29 05:44:54;;;;;;;6.65;1.20;;;;;;;26.25;34.76;97382.81;5069808;28;20028;-76
2024/03/29 05:47:20;;;;;;;2.10;1.40;;;;;;;27.00;33.44;97390.41;5086124;28;20023;-75
2024/03/29 05:49:46;;;;;;;4.30;1.90;;;;;;;27.50;33.30;97389.22;5068008;28;20031;-75
2024/03/29 05:52:15;;;;;;;7.95;1.10;;;;;;;27.47;32.48;97377.81;5066033;28;20487;-75
2024/03/29 05:54:44;;;;;;;8.07;1.83;;;;;;;27.40;33.07;97395.06;5062719;28;20445;-76
2024/03/29 05:57:10;;;;;;;7.93;2.15;;;;;;;27.62;32.45;97389.47;5069110;28;20514;-76
2024/03/29 05:59:35;;;;;;;3.03;1.50;;;;;;;28.38;32.38;97386.31;5049501;28;20106;-76
2024/03/29 06:02:02;;;;;;;22.55;5.80;;;;;;;29.68;30.76;97388.22;5049540;28;20488;-76
2024/03/29 06:04:32;;;;;;;40.15;10.00;;;;;;;30.77;30.13;97384.13;5065946;28;20028;-75
2024/03/29 06:07:05;;;;;;;23.65;7.13;;;;;;;31.15;29.36;97384.88;5074590;28;20101;-76
2024/03/29 06:09:33;;;;;;;7.25;3.10;;;;;;;31.29;29.20;97382.78;5065926;28;20025;-76
2024/03/29 06:11:59;;;;;;;8.05;1.95;;;;;;;31.24;28.64;97385.41;5049749;28;20045;-75
2024/03/29 06:17:24;;;;;;;24.55;5.38;;;;;;;32.11;28.44;97376.72;5067174;28;20167;-74
2024/03/29 06:19:56;;;;;;;3.65;1.13;;;;;;;32.15;28.09;97382.59;5065888;28;20197;-74
2024/03/29 06:22:23;;;;;;;4.97;2.60;;;;;;;31.96;27.54;97384.53;5066118;28;20021;-74
2024/03/29 06:24:51;;;;;;;7.10;3.83;;;;;;;30.96;28.74;97385.91;5065895;28;20108;-74
2024/03/29 06:27:17;;;;;;;19.63;9.90;;;;;;;31.11;28.60;97386.41;5083844;28;20445;-74
2024/03/29 06:29:44;;;;;;;27.67;18.83;;;;;;;31.01;28.70;97388.84;5086106;28;20028;-74
2024/03/29 06:32:09;;;;;;;6.55;1.42;;;;;;;31.79;27.95;97402.03;5085978;28;20455;-75
2024/03/29 06:34:35;;;;;;;15.63;3.08;;;;;;;32.49;28.35;97409.56;5068993;28;20113;-74
2024/03/29 06:37:01;;;;;;;72.38;19.38;;;;;;;32.61;28.19;97413.22;5085824;28;20121;-75
2024/03/29 06:39:27;;;;;;;20.10;4.80;;;;;;;32.64;27.17;97414.72;5086151;28;20502;-76
2024/03/29 06:41:52;;;;;;;32.08;13.50;;;;;;;31.84;27.96;97416.03;5087067;28;20024;-74
2024/03/29 06:44:18;;;;;;;11.52;3.30;;;;;;;30.84;28.33;97404.28;5085982;28;20491;-76
2024/03/29 06:46:43;;;;;;;5.00;2.00;;;;;;;31.52;28.03;97391.28;5070117;28;20035;-75
2024/03/29 06:49:09;;;;;;;40.70;21.73;;;;;;;31.23;28.34;97408.59;5066935;28;20017;-76
2024/03/29 06:51:35;;;;;;;54.92;27.95;;;;;;;30.06;29.73;97413.94;5066324;28;20036;-76
2024/03/29 06:54:00;;;;;;;8.85;2.05;;;;;;;31.53;28.10;97406.78;5072819;28;20034;-76
2024/03/29 06:56:26;;;;;;;16.98;2.33;;;;;;;33.05;26.76;97402.69;5086551;28;20046;-75
2024/03/29 06:58:52;;;;;;;7.70;1.30;;;;;;;32.06;27.61;97395.06;5073609;28;20021;-76
2024/03/29 07:01:17;;;;;;;3.97;0.90;;;;;;;32.63;26.85;97400.00;5081714;28;20146;-73
2024/03/29 07:03:43;;;;;;;8.80;4.47;;;;;;;33.76;26.38;97411.63;5090430;28;20411;-75
2024/03/29 07:06:08;;;;;;;25.10;16.98;;;;;;;33.83;27.43;97405.06;5086447;28;20047;-75
2024/03/29 07:08:34;;;;;;;8.25;1.45;;;;;;;33.86;26.01;97405.44;5076797;28;20029;-75
2024/03/29 07:11:01;;;;;;;2.63;1.50;;;;;;;34.07;25.35;97403.91;5088927;28;20035;-74
2024/03/29 07:13:28;;;;;;;4.10;1.60;;;;;;;33.58;26.20;97402.56;5090323;28;20032;-74
2024/03/29 07:15:54;;;;;;;3.60;1.60;;;;;;;33.84;25.51;97406.78;5088793;28;20165;-74
2024/03/29 07:18:20;;;;;;;12.88;1.63;;;;;;;33.07;25.69;97403.31;5090234;28;20619;-75
2024/03/29 07:20:45;;;;;;;2.92;1.48;;;;;;;33.21;25.95;97405.63;5088734;28;20039;-74
2024/03/29 07:23:11;;;;;;;3.85;1.10;;;;;;;33.14;26.28;97412.38;5090616;28;20035;-74
2024/03/29 07:25:37;;;;;;;5.13;1.10;;;;;;;34.49;25.38;97424.75;5088996;28;20048;-74
2024/03/29 07:28:03;;;;;;;8.40;2.78;;;;;;;35.49;25.28;97427.63;5088733;28;20074;-73
2024/03/29 07:30:28;;;;;;;2.30;1.55;;;;;;;35.93;23.97;97425.75;5090029;28;20177;-73
2024/03/29 07:32:54;;;;;;;3.97;1.30;;;;;;;35.94;25.24;97430.22;5070333;28;20036;-74
2024/03/29 07:35:19;;;;;;;4.95;1.73;;;;;;;35.18;23.99;97417.13;5068453;28;20052;-74
2024/03/29 07:37:50;;;;;;;5.13;1.00;;;;;;;33.73;24.52;97408.47;5076582;28;20028;-74
2024/03/29 07:40:16;;;;;;;6.13;1.20;;;;;;;33.01;25.07;97412.59;5089944;28;20031;-74
2024/03/29 07:42:41;;;;;;;3.10;1.95;;;;;;;33.94;24.15;97406.97;5089904;28;20036;-74
2024/03/29 07:45:08;;;;;;;2.35;0.90;;;;;;;34.51;24.51;97413.41;5088059;28;20032;-74
2024/03/29 07:47:33;;;;;;;3.40;0.70;;;;;;;35.45;24.88;97422.81;5089700;28;20113;-73
2024/03/29 07:49:59;;;;;;;6.07;2.15;;;;;;;35.47;24.31;97421.44;5088239;28;20142;-74
2024/03/29 07:52:30;;;;;;;4.40;1.83;;;;;;;35.79;23.56;97428.06;5088123;28;20028;-74
2024/03/29 07:54:55;;;;;;;5.55;2.10;;;;;;;34.96;23.94;97416.16;5087551;28;20039;-74
2024/03/29 07:57:21;;;;;;;8.18;1.90;;;;;;;35.11;23.91;97405.31;5069164;28;20028;-73
2024/03/29 07:59:47;;;;;;;2.03;1.00;;;;;;;35.47;23.92;97407.53;5089326;28;20028;-75
2024/03/29 08:02:13;;;;;;;2.17;1.02;;;;;;;35.71;24.16;97413.75;5088315;28;20482;-72
2024/03/29 08:04:42;;;;;;;5.28;2.42;;;;;;;35.73;23.92;97423.53;5089022;28;20108;-76
2024/03/29 08:07:08;;;;;;;3.22;1.58;;;;;;;36.25;22.85;97411.94;5071261;28;20119;-77
2024/03/29 08:09:34;;;;;;;7.78;1.88;;;;;;;34.21;24.71;97420.06;5071609;28;20123;-71
2024/03/29 08:11:59;;;;;;;3.42;1.52;;;;;;;33.90;25.23;97416.91;5090252;28;20051;-73
2024/03/29 08:14:27;;;;;;;7.78;1.40;;;;;;;33.45;25.42;97420.31;5091699;28;20059;-74
2024/03/29 08:16:54;;;;;;;9.40;2.30;;;;;;;32.84;25.65;97414.38;5091492;28;20051;-74
2024/03/29 08:19:20;;;;;;;5.50;1.25;;;;;;;32.55;25.43;97403.06;5086378;28;20024;-75
2024/03/29 08:21:45;;;;;;;1.73;1.05;;;;;;;33.00;25.60;97395.09;5077152;28;20035;-75
2024/03/29 08:24:11;;;;;;;3.67;0.82;;;;;;;33.49;25.31;97395.72;5081761;28;20028;-74
2024/03/29 08:26:37;;;;;;;3.38;0.90;;;;;;;35.41;23.17;97391.03;5070363;28;20029;-76
2024/03/29 08:29:02;;;;;;;4.75;1.63;;;;;;;36.13;23.19;97398.16;5053245;28;20347;-75
2024/03/29 08:31:28;;;;;;;6.13;1.33;;;;;;;36.12;23.56;97404.81;5070194;28;20458;-76
2024/03/29 08:33:54;;;;;;;5.18;1.25;;;;;;;36.11;24.04;97407.88;5070087;28;20055;-76
2024/03/29 08:36:19;;;;;;;14.15;9.93;;;;;;;37.20;22.77;97400.91;5072183;28;20028;-77
2024/03/29 08:38:46;;;;;;;2.58;1.33;;;;;;;36.77;22.52;97393.56;5090383;28;20380;-75
2024/03/29 08:41:12;;;;;;;2.72;1.55;;;;;;;35.21;22.92;97381.28;5091694;28;20073;-75
2024/03/29 08:43:38;;;;;;;4.72;1.20;;;;;;;35.52;23.41;97384.50;5089934;28;20020;-75
2024/03/29 08:46:03;;;;;;;4.75;1.58;;;;;;;35.85;23.04;97381.63;5073073;28;20023;-75
2024/03/29 08:48:29;;;;;;;5.22;1.52;;;;;;;34.98;23.60;97370.31;5089930;28;20113;-75
2024/03/29 08:50:55;;;;;;;5.82;1.17;;;;;;;34.90;23.73;97367.97;5091558;28;20054;-75
2024/03/29 08:53:25;;;;;;;2.20;0.80;;;;;;;36.65;22.59;97378.94;5073021;28;20104;-75
2024/03/29 08:55:51;;;;;;;4.05;1.15;;;;;;;35.90;22.73;97362.22;5090051;28;20020;-76
2024/03/29 08:58:18;;;;;;;3.58;0.80;;;;;;;36.19;22.97;97371.19;5089936;28;20028;-76
2024/03/29 09:00:55;;;;;;;6.82;1.77;;;;;;;35.69;23.10;97365.81;5089858;28;20056;-76
2024/03/29 09:03:22;;;;;;;3.55;1.70;;;;;;;33.82;24.78;97368.13;5089646;28;20455;-76
2024/03/29 09:05:48;;;;;;;3.28;1.40;;;;;;;33.37;24.65;97356.03;5091263;28;20027;-75
2024/03/29 09:08:15;;;;;;;3.22;1.17;;;;;;;33.44;25.15;97357.59;5089732;28;20432;-76
2024/03/29 09:10:41;;;;;;;14.15;1.77;;;;;;;34.82;24.14;97355.31;5089244;28;20081;-76
2024/03/29 09:13:07;;;;;;;3.00;1.38;;;;;;;35.12;23.65;97343.88;5072692;28;20044;-76
2024/03/29 09:15:33;;;;;;;7.38;4.25;;;;;;;36.11;22.84;97352.16;5090702;28;20020;-75
2024/03/29 09:18:02;;;;;;;3.90;0.90;;;;;;;36.11;22.68;97353.00;5088809;28;20051;-76
2024/03/29 09:20:28;;;;;;;5.28;1.00;;;;;;;36.29;22.53;97351.81;5069483;28;20020;-75
2024/03/29 09:22:54;;;;;;;1.85;0.80;;;;;;;36.51;22.28;97347.00;5052575;28;20399;-76
2024/03/29 09:25:19;;;;;;;3.75;1.15;;;;;;;36.08;22.63;97338.75;5069232;28;20117;-77
2024/03/29 09:27:46;;;;;;;13.50;4.07;;;;;;;35.94;22.60;97337.44;5052293;28;20044;-74
2024/03/29 09:30:12;;;;;;;3.20;1.33;;;;;;;36.37;22.70;97318.72;5069139;28;20106;-76
2024/03/29 09:32:39;;;;;;;4.72;1.65;;;;;;;36.56;22.83;97327.56;5069072;28;20032;-76
2024/03/29 09:35:04;;;;;;;9.05;1.75;;;;;;;36.68;22.46;97324.59;5052522;28;20070;-76
2024/03/29 09:37:30;;;;;;;3.50;1.40;;;;;;;37.02;22.43;97326.00;5069193;28;20454;-76
2024/03/29 09:39:56;;;;;;;7.82;1.63;;;;;;;36.49;23.03;97328.84;5052289;28;20021;-76
2024/03/29 09:42:24;;;;;;;3.83;1.00;;;;;;;37.23;22.09;97315.78;5070435;28;20444;-76
2024/03/29 09:44:51;;;;;;;3.38;1.70;;;;;;;38.06;21.47;97319.56;5068929;28;20086;-76
2024/03/29 09:47:17;;;;;;;3.75;1.35;;;;;;;35.92;22.60;97317.38;5078637;28;20035;-76
2024/03/29 09:49:44;;;;;;;4.05;1.08;;;;;;;35.55;22.85;97315.25;5089020;28;20118;-77
2024/03/29 09:52:11;;;;;;;2.55;0.90;;;;;;;34.92;23.10;97296.25;5072220;28;20097;-77
2024/03/29 09:54:37;;;;;;;7.18;1.23;;;;;;;34.37;23.83;97290.59;5089034;28;20055;-75
2024/03/29 09:57:04;;;;;;;2.35;1.30;;;;;;;35.14;23.19;97297.16;5089228;28;20067;-76
2024/03/29 09:59:29;;;;;;;5.45;1.00;;;;;;;35.13;23.34;97287.13;5090127;28;20491;-76
2024/03/29 10:01:55;;;;;;;5.82;2.25;;;;;;;36.20;23.15;97290.13;5088939;28;20103;-77
2024/03/29 10:04:24;;;;;;;3.97;1.10;;;;;;;36.05;22.70;97280.78;5073835;28;20107;-77
2024/03/29 10:06:50;;;;;;;4.35;1.48;;;;;;;35.51;23.12;97291.81;5068741;28;20036;-77
2024/03/29 10:09:19;;;;;;;4.28;1.75;;;;;;;35.71;23.60;97288.47;5068948;28;20456;-77
2024/03/29 10:11:45;;;;;;;9.75;1.38;;;;;;;36.59;22.66;97282.41;5068713;28;20142;-77
2024/03/29 10:14:11;;;;;;;9.95;1.30;;;;;;;37.16;22.77;97285.34;5070212;28;20059;-77
2024/03/29 10:16:37;;;;;;;10.82;1.40;;;;;;;37.11;22.51;97282.53;5051751;28;20072;-77
2024/03/29 10:19:04;;;;;;;6.93;2.33;;;;;;;37.04;21.99;97278.31;5081279;28;20031;-77
2024/03/29 10:21:29;;;;;;;4.03;1.48;;;;;;;34.25;23.72;97264.84;5088957;28;20039;-77
2024/03/29 10:23:55;;;;;;;4.53;1.20;;;;;;;34.16;24.04;97281.09;5088808;28;20455;-76
2024/03/29 10:26:25;;;;;;;3.50;0.93;;;;;;;33.58;24.76;97270.22;5089203;28;20103;-77
2024/03/29 10:28:51;;;;;;;2.50;0.75;;;;;;;36.20;22.76;97272.56;5074612;28;20016;-76
2024/03/29 10:31:17;;;;;;;4.43;1.08;;;;;;;37.71;21.76;97268.03;5092907;28;20387;-76
2024/03/29 10:33:48;;;;;;;4.85;1.15;;;;;;;38.29;20.85;97260.34;5092563;28;20020;-76
2024/03/29 10:36:14;;;;;;;4.45;1.00;;;;;;;38.05;21.21;97257.25;5076541;28;20483;-77
2024/03/29 10:38:40;;;;;;;2.30;0.98;;;;;;;38.07;21.30;97265.34;5075564;28;20036;-76
2024/03/29 10:41:06;;;;;;;3.65;0.77;;;;;;;37.48;21.40;97260.13;5075803;28;20039;-76
2024/03/29 10:43:33;;;;;;;3.55;1.40;;;;;;;38.36;21.46;97260.94;5092793;28;20028;-76
2024/03/29 10:46:00;;;;;;;2.90;1.10;;;;;;;38.67;20.98;97259.00;5092445;28;20027;-76
2024/03/29 10:48:27;;;;;;;6.88;1.52;;;;;;;38.08;21.50;97250.25;5092587;28;20138;-76
2024/03/29 10:50:54;;;;;;;4.38;1.35;;;;;;;37.60;21.89;97252.34;5074079;28;20035;-77
2024/03/29 10:53:22;;;;;;;5.68;2.20;;;;;;;37.44;22.02;97261.75;5058230;28;20530;-77
2024/03/29 10:55:50;;;;;;;5.95;2.00;;;;;;;38.33;21.29;97248.31;5084033;28;20027;-76
2024/03/29 10:58:19;;;;;;;9.88;2.38;;;;;;;36.89;22.07;97251.94;5092274;28;20035;-77
2024/03/29 11:00:48;;;;;;;2.40;1.20;;;;;;;36.60;22.23;97250.66;5075297;28;20020;-75
2024/03/29 11:03:42;;;;;;;11.43;7.57;;;;;;;36.86;22.27;97246.91;5092161;28;20024;-77
2024/03/29 11:06:08;;;;;;;4.10;1.40;;;;;;;36.11;22.05;97233.22;5091826;28;20107;-77
2024/03/29 11:08:39;;;;;;;5.07;1.40;;;;;;;36.95;22.16;97233.28;5060037;28;20032;-77
2024/03/29 11:11:05;;;;;;;1.85;1.08;;;;;;;35.83;22.93;97237.09;5055496;28;20028;-77
2024/03/29 11:13:34;;;;;;;3.42;2.00;;;;;;;35.27;23.03;97237.50;5072943;28;20024;-74
2024/03/29 11:16:00;;;;;;;3.00;1.27;;;;;;;35.68;23.17;97245.28;5072670;28;20031;-75
2024/03/29 11:18:27;;;;;;;8.15;1.17;;;;;;;35.55;22.91;97240.09;5054906;28;20119;-77
2024/03/29 11:20:53;;;;;;;2.85;1.08;;;;;;;35.85;23.15;97232.09;5055068;28;20047;-75
2024/03/29 11:23:22;;;;;;;3.08;1.20;;;;;;;36.77;22.25;97237.38;5071730;28;20059;-76
2024/03/29 11:26:11;;;;;;;3.65;1.75;;;;;;;37.28;21.94;97234.91;5054783;28;20031;-76
2024/03/29 11:28:37;;;;;;;3.22;1.33;;;;;;;36.54;22.31;97235.00;5071128;28;20381;-75
2024/03/29 11:31:09;;;;;;;4.47;1.95;;;;;;;36.47;22.31;97223.19;5071193;28;20028;-76
2024/03/29 11:33:37;;;;;;;2.45;1.10;;;;;;;36.84;22.20;97225.97;5054707;28;20029;-77
2024/03/29 11:36:13;;;;;;;6.13;3.88;;;;;;;36.11;22.88;97224.00;5072494;28;20411;-76
2024/03/29 11:38:39;;;;;;;1.25;1.08;;;;;;;37.33;22.34;97220.94;5070983;28;20020;-75